sensor_id;sensor_type;location;lat;lon;timestamp;pressure;altitude;pressure_sealevel;temperature;humidity
35716;BME280;21840;44.920;8.616;2022-08-25T00:00:56;100382.22;;;26.70;45.90
35716;BME280;21840;44.920;8.616;2022-08-25T00:03:22;100375.88;;;26.76;45.84
35716;BME280;21840;44.920;8.616;2022-08-25T00:05:47;100374.22;;;26.75;45.74
35716;BME280;21840;44.920;8.616;2022-08-25T00:08:13;100372.75;;;26.67;45.68
35716;BME280;21840;44.920;8.616;2022-08-25T00:10:39;100386.69;;;26.64;45.74
35716;BME280;21840;44.920;8.616;2022-08-25T00:13:04;100373.56;;;26.68;45.47
35716;BME280;21840;44.920;8.616;2022-08-25T00:15:31;100378.25;;;26.61;45.24
35716;BME280;21840;44.920;8.616;2022-08-25T00:17:58;100379.59;;;26.46;45.77
35716;BME280;21840;44.920;8.616;2022-08-25T00:20:25;100379.13;;;26.38;46.45
35716;BME280;21840;44.920;8.616;2022-08-25T00:22:52;100370.47;;;26.36;46.77
35716;BME280;21840;44.920;8.616;2022-08-25T00:25:18;100377.66;;;26.30;47.14
35716;BME280;21840;44.920;8.616;2022-08-25T00:27:44;100366.34;;;26.04;48.28
35716;BME280;21840;44.920;8.616;2022-08-25T00:30:10;100368.69;;;26.13;48.22
35716;BME280;21840;44.920;8.616;2022-08-25T00:32:38;100365.63;;;26.21;47.48
35716;BME280;21840;44.920;8.616;2022-08-25T00:35:05;100361.66;;;26.12;47.05
35716;BME280;21840;44.920;8.616;2022-08-25T00:37:31;100358.50;;;26.03;47.21
35716;BME280;21840;44.920;8.616;2022-08-25T00:39:59;100361.09;;;26.10;46.98
35716;BME280;21840;44.920;8.616;2022-08-25T00:42:25;100362.72;;;26.11;46.93
35716;BME280;21840;44.920;8.616;2022-08-25T00:44:51;100364.34;;;26.12;46.84
35716;BME280;21840;44.920;8.616;2022-08-25T00:47:17;100367.38;;;26.15;47.04
35716;BME280;21840;44.920;8.616;2022-08-25T00:49:50;100365.66;;;26.09;47.27
35716;BME280;21840;44.920;8.616;2022-08-25T00:52:26;100374.97;;;26.18;46.96
35716;BME280;21840;44.920;8.616;2022-08-25T00:55:01;100378.59;;;26.24;47.01
35716;BME280;21840;44.920;8.616;2022-08-25T00:57:45;100380.22;;;26.25;46.87
35716;BME280;21840;44.920;8.616;2022-08-25T01:00:20;100373.91;;;26.31;46.69
35716;BME280;21840;44.920;8.616;2022-08-25T01:02:46;100373.91;;;26.31;46.65
35716;BME280;21840;44.920;8.616;2022-08-25T01:05:12;100374.53;;;26.21;47.08
35716;BME280;21840;44.920;8.616;2022-08-25T01:07:38;100380.03;;;26.15;47.56
35716;BME280;21840;44.920;8.616;2022-08-25T01:10:05;100377.34;;;26.03;47.69
35716;BME280;21840;44.920;8.616;2022-08-25T01:12:33;100378.53;;;26.07;48.05
35716;BME280;21840;44.920;8.616;2022-08-25T01:14:59;100376.22;;;25.87;49.24
35716;BME280;21840;44.920;8.616;2022-08-25T01:17:34;100388.38;;;25.66;49.81
35716;BME280;21840;44.920;8.616;2022-08-25T01:19:59;100389.66;;;25.64;50.21
35716;BME280;21840;44.920;8.616;2022-08-25T01:22:28;100392.91;;;25.42;50.68
35716;BME280;21840;44.920;8.616;2022-08-25T01:27:23;100388.44;;;25.24;51.33
35716;BME280;21840;44.920;8.616;2022-08-25T01:29:49;100383.31;;;25.58;50.57
35716;BME280;21840;44.920;8.616;2022-08-25T01:32:14;100389.28;;;25.48;50.76
35716;BME280;21840;44.920;8.616;2022-08-25T01:34:41;100384.38;;;25.69;50.41
35716;BME280;21840;44.920;8.616;2022-08-25T01:37:09;100387.63;;;25.71;50.77
35716;BME280;21840;44.920;8.616;2022-08-25T01:39:35;100387.75;;;25.76;51.05
35716;BME280;21840;44.920;8.616;2022-08-25T01:44:48;100388.34;;;25.78;51.01
35716;BME280;21840;44.920;8.616;2022-08-25T01:47:14;100393.88;;;25.71;50.75
35716;BME280;21840;44.920;8.616;2022-08-25T01:49:40;100397.66;;;25.28;52.44
35716;BME280;21840;44.920;8.616;2022-08-25T01:54:36;100393.00;;;25.35;51.78
35716;BME280;21840;44.920;8.616;2022-08-25T01:57:01;100386.00;;;25.34;51.87
35716;BME280;21840;44.920;8.616;2022-08-25T01:59:27;100392.97;;;24.82;52.34
35716;BME280;21840;44.920;8.616;2022-08-25T02:01:52;100401.81;;;25.12;51.17
35716;BME280;21840;44.920;8.616;2022-08-25T02:04:18;100397.31;;;25.25;50.54
35716;BME280;21840;44.920;8.616;2022-08-25T02:06:44;100403.19;;;25.03;51.44
35716;BME280;21840;44.920;8.616;2022-08-25T02:09:14;100394.84;;;24.93;51.45
35716;BME280;21840;44.920;8.616;2022-08-25T02:11:42;100397.53;;;24.63;52.21
35716;BME280;21840;44.920;8.616;2022-08-25T02:14:10;100400.88;;;24.46;52.61
35716;BME280;21840;44.920;8.616;2022-08-25T02:16:37;100399.28;;;24.02;54.60
35716;BME280;21840;44.920;8.616;2022-08-25T02:19:05;100407.47;;;24.44;53.39
35716;BME280;21840;44.920;8.616;2022-08-25T02:21:31;100401.94;;;24.39;53.67
35716;BME280;21840;44.920;8.616;2022-08-25T02:23:58;100405.53;;;24.69;52.66
35716;BME280;21840;44.920;8.616;2022-08-25T02:26:24;100408.47;;;24.49;52.99
35716;BME280;21840;44.920;8.616;2022-08-25T02:28:50;100403.06;;;24.68;52.78
35716;BME280;21840;44.920;8.616;2022-08-25T02:31:18;100401.56;;;24.35;54.00
35716;BME280;21840;44.920;8.616;2022-08-25T02:33:44;100400.88;;;24.46;53.88
35716;BME280;21840;44.920;8.616;2022-08-25T02:36:10;100404.59;;;24.75;53.18
35716;BME280;21840;44.920;8.616;2022-08-25T02:38:36;100416.59;;;24.91;52.79
35716;BME280;21840;44.920;8.616;2022-08-25T02:41:11;100413.31;;;24.59;53.58
35716;BME280;21840;44.920;8.616;2022-08-25T02:43:39;100406.28;;;24.40;54.16
35716;BME280;21840;44.920;8.616;2022-08-25T02:46:05;100401.78;;;24.70;53.47
35716;BME280;21840;44.920;8.616;2022-08-25T02:48:31;100403.25;;;24.85;53.00
35716;BME280;21840;44.920;8.616;2022-08-25T02:50:59;100400.34;;;24.86;52.74
35716;BME280;21840;44.920;8.616;2022-08-25T02:53:25;100397.47;;;24.69;52.90
35716;BME280;21840;44.920;8.616;2022-08-25T02:55:51;100390.56;;;24.73;52.51
35716;BME280;21840;44.920;8.616;2022-08-25T02:58:17;100393.22;;;24.62;52.95
35716;BME280;21840;44.920;8.616;2022-08-25T03:00:43;100390.91;;;24.65;52.85
35716;BME280;21840;44.920;8.616;2022-08-25T03:03:10;100404.03;;;24.55;53.48
35716;BME280;21840;44.920;8.616;2022-08-25T03:05:36;100402.78;;;24.58;53.30
35716;BME280;21840;44.920;8.616;2022-08-25T03:08:01;100408.16;;;24.58;53.49
35716;BME280;21840;44.920;8.616;2022-08-25T03:10:27;100408.22;;;24.32;53.72
35716;BME280;21840;44.920;8.616;2022-08-25T03:12:53;100407.91;;;24.41;53.41
35716;BME280;21840;44.920;8.616;2022-08-25T03:15:18;100401.81;;;24.52;53.27
35716;BME280;21840;44.920;8.616;2022-08-25T03:17:47;100402.63;;;24.52;53.61
35716;BME280;21840;44.920;8.616;2022-08-25T03:20:16;100400.00;;;24.27;53.79
35716;BME280;21840;44.920;8.616;2022-08-25T03:22:42;100395.75;;;24.38;53.29
35716;BME280;21840;44.920;8.616;2022-08-25T03:25:08;100394.94;;;24.38;53.38
35716;BME280;21840;44.920;8.616;2022-08-25T03:27:53;100392.88;;;24.21;53.58
35716;BME280;21840;44.920;8.616;2022-08-25T03:30:18;100399.72;;;24.17;53.79
35716;BME280;21840;44.920;8.616;2022-08-25T03:32:47;100398.97;;;24.10;53.81
35716;BME280;21840;44.920;8.616;2022-08-25T03:35:13;100398.22;;;24.03;54.41
35716;BME280;21840;44.920;8.616;2022-08-25T03:37:39;100405.09;;;24.17;54.16
35716;BME280;21840;44.920;8.616;2022-08-25T03:40:07;100395.09;;;24.06;54.50
35716;BME280;21840;44.920;8.616;2022-08-25T03:42:34;100394.06;;;24.07;54.35
35716;BME280;21840;44.920;8.616;2022-08-25T03:45:04;100390.84;;;23.98;54.31
35716;BME280;21840;44.920;8.616;2022-08-25T03:47:30;100385.25;;;24.18;53.93
35716;BME280;21840;44.920;8.616;2022-08-25T03:49:55;100377.81;;;24.20;53.73
35716;BME280;21840;44.920;8.616;2022-08-25T03:52:21;100377.22;;;24.00;54.19
35716;BME280;21840;44.920;8.616;2022-08-25T03:54:47;100370.03;;;24.30;53.37
35716;BME280;21840;44.920;8.616;2022-08-25T03:57:13;100373.84;;;24.41;52.91
35716;BME280;21840;44.920;8.616;2022-08-25T03:59:38;100383.38;;;24.37;53.14
35716;BME280;21840;44.920;8.616;2022-08-25T04:02:05;100376.06;;;24.44;53.01
35716;BME280;21840;44.920;8.616;2022-08-25T04:04:31;100377.34;;;24.42;53.06
35716;BME280;21840;44.920;8.616;2022-08-25T04:06:56;100383.09;;;24.45;52.78
35716;BME280;21840;44.920;8.616;2022-08-25T04:09:23;100371.09;;;24.48;52.78
35716;BME280;21840;44.920;8.616;2022-08-25T04:11:49;100380.63;;;24.44;53.28
35716;BME280;21840;44.920;8.616;2022-08-25T04:14:15;100377.72;;;24.45;52.95
35716;BME280;21840;44.920;8.616;2022-08-25T04:16:40;100377.22;;;24.37;53.60
35716;BME280;21840;44.920;8.616;2022-08-25T04:19:06;100378.34;;;24.29;54.01
35716;BME280;21840;44.920;8.616;2022-08-25T04:21:35;100375.66;;;24.29;54.29
35716;BME280;21840;44.920;8.616;2022-08-25T04:24:00;100374.81;;;24.28;54.63
35716;BME280;21840;44.920;8.616;2022-08-25T04:26:31;100374.94;;;24.33;54.34
35716;BME280;21840;44.920;8.616;2022-08-25T04:28:59;100375.69;;;24.41;54.50
35716;BME280;21840;44.920;8.616;2022-08-25T04:31:26;100376.91;;;24.08;56.11
35716;BME280;21840;44.920;8.616;2022-08-25T04:33:51;100374.69;;;24.05;56.18
35716;BME280;21840;44.920;8.616;2022-08-25T04:36:18;100379.59;;;24.08;56.02
35716;BME280;21840;44.920;8.616;2022-08-25T04:38:45;100383.31;;;24.07;56.04
35716;BME280;21840;44.920;8.616;2022-08-25T04:41:13;100388.84;;;24.12;55.20
35716;BME280;21840;44.920;8.616;2022-08-25T04:43:40;100393.59;;;23.92;55.29
35716;BME280;21840;44.920;8.616;2022-08-25T04:46:08;100394.31;;;23.80;56.23
35716;BME280;21840;44.920;8.616;2022-08-25T04:48:35;100393.66;;;23.85;55.58
35716;BME280;21840;44.920;8.616;2022-08-25T04:51:10;100406.50;;;23.76;56.10
35716;BME280;21840;44.920;8.616;2022-08-25T04:53:36;100400.66;;;23.61;56.01
35716;BME280;21840;44.920;8.616;2022-08-25T04:56:08;100403.28;;;23.67;55.66
35716;BME280;21840;44.920;8.616;2022-08-25T04:58:34;100400.38;;;23.94;54.78
35716;BME280;21840;44.920;8.616;2022-08-25T05:01:13;100390.31;;;23.89;55.28
35716;BME280;21840;44.920;8.616;2022-08-25T05:03:40;100386.81;;;24.07;55.02
35716;BME280;21840;44.920;8.616;2022-08-25T05:06:06;100391.66;;;24.17;54.61
35716;BME280;21840;44.920;8.616;2022-08-25T05:08:32;100392.03;;;24.21;54.97
35716;BME280;21840;44.920;8.616;2022-08-25T05:10:58;100388.63;;;24.32;54.71
35716;BME280;21840;44.920;8.616;2022-08-25T05:13:25;100380.47;;;24.20;54.74
35716;BME280;21840;44.920;8.616;2022-08-25T05:15:55;100378.69;;;24.32;54.44
35716;BME280;21840;44.920;8.616;2022-08-25T05:18:24;100381.97;;;24.35;54.40
35716;BME280;21840;44.920;8.616;2022-08-25T05:20:51;100372.25;;;24.33;54.53
35716;BME280;21840;44.920;8.616;2022-08-25T05:23:19;100378.97;;;24.43;54.47
35716;BME280;21840;44.920;8.616;2022-08-25T05:25:45;100372.69;;;24.67;53.92
35716;BME280;21840;44.920;8.616;2022-08-25T05:28:11;100365.88;;;24.53;54.14
35716;BME280;21840;44.920;8.616;2022-08-25T05:30:38;100366.06;;;24.70;53.37
35716;BME280;21840;44.920;8.616;2022-08-25T05:33:03;100369.81;;;24.81;53.09
35716;BME280;21840;44.920;8.616;2022-08-25T05:35:29;100364.75;;;25.03;52.50
35716;BME280;21840;44.920;8.616;2022-08-25T05:37:55;100364.34;;;25.17;51.92
35716;BME280;21840;44.920;8.616;2022-08-25T05:40:22;100376.03;;;25.23;51.39
35716;BME280;21840;44.920;8.616;2022-08-25T05:42:49;100377.25;;;25.39;51.17
35716;BME280;21840;44.920;8.616;2022-08-25T05:45:15;100380.16;;;25.37;51.22
35716;BME280;21840;44.920;8.616;2022-08-25T05:47:44;100382.63;;;25.39;51.18
35716;BME280;21840;44.920;8.616;2022-08-25T05:50:10;100379.09;;;25.27;51.63
35716;BME280;21840;44.920;8.616;2022-08-25T05:52:35;100374.41;;;25.22;51.81
35716;BME280;21840;44.920;8.616;2022-08-25T05:55:01;100384.34;;;25.22;51.74
35716;BME280;21840;44.920;8.616;2022-08-25T05:57:27;100383.44;;;25.39;51.43
35716;BME280;21840;44.920;8.616;2022-08-25T05:59:53;100392.66;;;25.55;51.50
35716;BME280;21840;44.920;8.616;2022-08-25T06:02:18;100399.00;;;25.49;51.60
35716;BME280;21840;44.920;8.616;2022-08-25T06:05:03;100389.38;;;25.53;50.96
35716;BME280;21840;44.920;8.616;2022-08-25T06:07:29;100396.16;;;25.56;50.91
35716;BME280;21840;44.920;8.616;2022-08-25T06:09:54;100393.38;;;25.63;50.84
35716;BME280;21840;44.920;8.616;2022-08-25T06:12:20;100389.16;;;25.55;50.88
35716;BME280;21840;44.920;8.616;2022-08-25T06:14:46;100388.84;;;25.87;50.14
35716;BME280;21840;44.920;8.616;2022-08-25T06:17:14;100389.66;;;25.64;50.29
35716;BME280;21840;44.920;8.616;2022-08-25T06:19:41;100385.53;;;26.08;49.62
35716;BME280;21840;44.920;8.616;2022-08-25T06:22:07;100390.56;;;25.46;50.94
35716;BME280;21840;44.920;8.616;2022-08-25T06:24:33;100388.03;;;25.86;50.26
35716;BME280;21840;44.920;8.616;2022-08-25T06:27:00;100386.00;;;25.93;50.26
35716;BME280;21840;44.920;8.616;2022-08-25T06:29:26;100381.44;;;25.58;51.05
35716;BME280;21840;44.920;8.616;2022-08-25T06:31:52;100379.50;;;25.89;50.75
35716;BME280;21840;44.920;8.616;2022-08-25T06:34:17;100373.84;;;25.91;50.44
35716;BME280;21840;44.920;8.616;2022-08-25T06:36:43;100378.41;;;25.67;50.93
35716;BME280;21840;44.920;8.616;2022-08-25T06:39:09;100376.06;;;25.82;50.91
35716;BME280;21840;44.920;8.616;2022-08-25T06:41:36;100368.56;;;26.08;50.22
35716;BME280;21840;44.920;8.616;2022-08-25T06:44:02;100368.94;;;26.11;50.31
35716;BME280;21840;44.920;8.616;2022-08-25T06:46:28;100361.41;;;26.13;50.17
35716;BME280;21840;44.920;8.616;2022-08-25T06:48:55;100364.47;;;26.45;49.17
35716;BME280;21840;44.920;8.616;2022-08-25T06:51:23;100367.78;;;25.72;50.57
35716;BME280;21840;44.920;8.616;2022-08-25T06:53:50;100370.53;;;26.24;49.62
35716;BME280;21840;44.920;8.616;2022-08-25T06:56:18;100373.94;;;26.19;49.41
35716;BME280;21840;44.920;8.616;2022-08-25T06:58:45;100382.22;;;26.30;49.04
35716;BME280;21840;44.920;8.616;2022-08-25T07:01:19;100382.28;;;25.59;50.58
35716;BME280;21840;44.920;8.616;2022-08-25T07:03:48;100376.22;;;25.99;50.21
35716;BME280;21840;44.920;8.616;2022-08-25T07:06:15;100374.31;;;26.52;48.72
35716;BME280;21840;44.920;8.616;2022-08-25T07:08:43;100380.69;;;26.74;48.27
35716;BME280;21840;44.920;8.616;2022-08-25T07:11:09;100382.03;;;27.05;47.56
35716;BME280;21840;44.920;8.616;2022-08-25T07:13:36;100383.97;;;26.76;48.01
35716;BME280;21840;44.920;8.616;2022-08-25T07:16:03;100376.25;;;27.14;47.11
35716;BME280;21840;44.920;8.616;2022-08-25T07:18:30;100370.41;;;27.34;46.64
35716;BME280;21840;44.920;8.616;2022-08-25T07:20:55;100373.72;;;27.07;47.11
35716;BME280;21840;44.920;8.616;2022-08-25T07:23:22;100364.81;;;27.06;47.12
35716;BME280;21840;44.920;8.616;2022-08-25T07:25:48;100369.50;;;27.28;46.60
35716;BME280;21840;44.920;8.616;2022-08-25T07:28:15;100372.81;;;27.69;45.66
35716;BME280;21840;44.920;8.616;2022-08-25T07:30:42;100372.50;;;27.65;45.56
35716;BME280;21840;44.920;8.616;2022-08-25T07:33:08;100377.22;;;27.92;45.05
35716;BME280;21840;44.920;8.616;2022-08-25T07:35:33;100374.75;;;27.90;45.00
35716;BME280;21840;44.920;8.616;2022-08-25T07:38:02;100373.75;;;27.24;46.03
35716;BME280;21840;44.920;8.616;2022-08-25T07:40:31;100377.91;;;27.82;44.97
35716;BME280;21840;44.920;8.616;2022-08-25T07:43:00;100379.97;;;27.97;44.68
35716;BME280;21840;44.920;8.616;2022-08-25T07:45:28;100378.50;;;28.06;44.23
35716;BME280;21840;44.920;8.616;2022-08-25T07:48:09;100383.75;;;28.18;44.18
35716;BME280;21840;44.920;8.616;2022-08-25T07:50:38;100377.13;;;28.26;44.05
35716;BME280;21840;44.920;8.616;2022-08-25T07:53:04;100380.25;;;28.17;43.97
35716;BME280;21840;44.920;8.616;2022-08-25T07:55:30;100372.47;;;28.21;43.84
35716;BME280;21840;44.920;8.616;2022-08-25T07:57:57;100364.53;;;28.36;43.80
35716;BME280;21840;44.920;8.616;2022-08-25T08:00:25;100366.44;;;28.36;43.44
35716;BME280;21840;44.920;8.616;2022-08-25T08:02:54;100362.78;;;28.47;43.41
35716;BME280;21840;44.920;8.616;2022-08-25T08:05:19;100367.53;;;28.62;43.00
35716;BME280;21840;44.920;8.616;2022-08-25T08:07:45;100364.03;;;28.62;42.75
35716;BME280;21840;44.920;8.616;2022-08-25T08:10:13;100372.75;;;28.69;42.66
35716;BME280;21840;44.920;8.616;2022-08-25T08:12:40;100366.28;;;28.70;42.58
35716;BME280;21840;44.920;8.616;2022-08-25T08:15:07;100363.09;;;28.78;42.38
35716;BME280;21840;44.920;8.616;2022-08-25T08:17:33;100372.38;;;28.87;42.10
35716;BME280;21840;44.920;8.616;2022-08-25T08:19:59;100368.13;;;28.91;42.22
35716;BME280;21840;44.920;8.616;2022-08-25T08:22:25;100382.38;;;28.59;42.74
35716;BME280;21840;44.920;8.616;2022-08-25T08:24:53;100384.44;;;28.30;43.39
35716;BME280;21840;44.920;8.616;2022-08-25T08:27:19;100375.53;;;28.52;43.14
35716;BME280;21840;44.920;8.616;2022-08-25T08:29:45;100379.81;;;28.48;42.88
35716;BME280;21840;44.920;8.616;2022-08-25T08:32:11;100386.94;;;28.81;42.28
35716;BME280;21840;44.920;8.616;2022-08-25T08:34:40;100381.63;;;28.91;41.98
35716;BME280;21840;44.920;8.616;2022-08-25T08:37:07;100383.81;;;28.94;41.84
35716;BME280;21840;44.920;8.616;2022-08-25T08:39:32;100379.13;;;29.12;41.34
35716;BME280;21840;44.920;8.616;2022-08-25T08:51:02;100376.03;;;29.30;40.84
35716;BME280;21840;44.920;8.616;2022-08-25T08:53:43;100377.41;;;29.33;40.72
35716;BME280;21840;44.920;8.616;2022-08-25T08:56:15;100383.16;;;29.41;40.87
35716;BME280;21840;44.920;8.616;2022-08-25T08:59:21;100379.63;;;29.41;40.73
35716;BME280;21840;44.920;8.616;2022-08-25T09:01:57;100370.44;;;28.82;41.63
35716;BME280;21840;44.920;8.616;2022-08-25T09:04:42;100369.81;;;29.30;40.78
35716;BME280;21840;44.920;8.616;2022-08-25T09:07:13;100359.06;;;29.40;40.38
35716;BME280;21840;44.920;8.616;2022-08-25T09:09:41;100360.22;;;29.49;40.27
35716;BME280;21840;44.920;8.616;2022-08-25T09:12:14;100357.44;;;29.76;39.71
35716;BME280;21840;44.920;8.616;2022-08-25T09:20:45;100339.88;;;29.84;39.06
35716;BME280;21840;44.920;8.616;2022-08-25T09:26:02;100338.06;;;30.10;38.70
35716;BME280;21840;44.920;8.616;2022-08-25T09:29:03;100333.78;;;30.19;38.16
35716;BME280;21840;44.920;8.616;2022-08-25T09:31:33;100336.00;;;30.33;38.25
35716;BME280;21840;44.920;8.616;2022-08-25T09:34:03;100328.72;;;30.43;38.32
35716;BME280;21840;44.920;8.616;2022-08-25T09:36:30;100321.94;;;30.36;38.03
35716;BME280;21840;44.920;8.616;2022-08-25T09:38:58;100321.66;;;30.42;38.18
35716;BME280;21840;44.920;8.616;2022-08-25T09:41:47;100315.97;;;30.34;37.66
35716;BME280;21840;44.920;8.616;2022-08-25T09:44:23;100320.06;;;30.41;37.64
35716;BME280;21840;44.920;8.616;2022-08-25T09:47:14;100315.44;;;30.42;37.48
35716;BME280;21840;44.920;8.616;2022-08-25T09:49:55;100317.59;;;30.35;37.77
35716;BME280;21840;44.920;8.616;2022-08-25T09:54:54;100311.09;;;30.36;37.98
35716;BME280;21840;44.920;8.616;2022-08-25T09:59:52;100290.25;;;30.46;37.52
35716;BME280;21840;44.920;8.616;2022-08-25T10:02:23;100284.84;;;30.67;37.09
35716;BME280;21840;44.920;8.616;2022-08-25T10:04:50;100287.84;;;30.76;37.28
35716;BME280;21840;44.920;8.616;2022-08-25T10:07:23;100293.28;;;30.86;36.98
35716;BME280;21840;44.920;8.616;2022-08-25T10:09:53;100292.75;;;30.84;37.24
35716;BME280;21840;44.920;8.616;2022-08-25T10:12:29;100291.38;;;31.07;36.75
35716;BME280;21840;44.920;8.616;2022-08-25T10:14:55;100280.53;;;30.97;36.96
35716;BME280;21840;44.920;8.616;2022-08-25T10:17:25;100282.97;;;31.08;36.45
35716;BME280;21840;44.920;8.616;2022-08-25T10:20:37;100280.28;;;30.98;36.65
35716;BME280;21840;44.920;8.616;2022-08-25T10:22:41;100268.28;;;31.25;36.49
35716;BME280;21840;44.920;8.616;2022-08-25T10:25:12;100267.22;;;31.26;36.67
35716;BME280;21840;44.920;8.616;2022-08-25T10:27:53;100266.91;;;31.32;36.64
35716;BME280;21840;44.920;8.616;2022-08-25T10:33:34;100246.53;;;31.55;35.93
35716;BME280;21840;44.920;8.616;2022-08-25T10:39:02;100246.56;;;31.40;36.02
35716;BME280;21840;44.920;8.616;2022-08-25T10:44:14;100244.94;;;31.44;35.66
35716;BME280;21840;44.920;8.616;2022-08-25T10:49:45;100235.66;;;31.61;35.21
35716;BME280;21840;44.920;8.616;2022-08-25T10:52:35;100234.50;;;31.72;34.53
35716;BME280;21840;44.920;8.616;2022-08-25T10:55:19;100233.06;;;31.85;34.61
35716;BME280;21840;44.920;8.616;2022-08-25T10:57:57;100222.44;;;31.93;33.92
35716;BME280;21840;44.920;8.616;2022-08-25T11:00:31;100224.56;;;32.07;34.09
35716;BME280;21840;44.920;8.616;2022-08-25T11:03:13;100219.59;;;32.19;33.68
35716;BME280;21840;44.920;8.616;2022-08-25T11:05:47;100209.81;;;32.18;33.35
35716;BME280;21840;44.920;8.616;2022-08-25T11:08:31;100210.91;;;32.17;33.35
35716;BME280;21840;44.920;8.616;2022-08-25T11:13:56;100197.38;;;32.07;33.09
35716;BME280;21840;44.920;8.616;2022-08-25T11:16:37;100192.69;;;32.17;32.72
35716;BME280;21840;44.920;8.616;2022-08-25T11:22:21;100200.34;;;32.15;32.53
35716;BME280;21840;44.920;8.616;2022-08-25T11:27:52;100189.75;;;32.48;31.46
35716;BME280;21840;44.920;8.616;2022-08-25T11:30:20;100187.28;;;32.52;31.76
35716;BME280;21840;44.920;8.616;2022-08-25T11:32:49;100185.22;;;32.38;31.95
35716;BME280;21840;44.920;8.616;2022-08-25T11:35:18;100178.38;;;32.41;32.11
35716;BME280;21840;44.920;8.616;2022-08-25T11:40:39;100168.22;;;32.57;31.81
35716;BME280;21840;44.920;8.616;2022-08-25T11:43:20;100164.19;;;32.49;32.16
35716;BME280;21840;44.920;8.616;2022-08-25T11:48:56;100155.41;;;32.57;31.92
35716;BME280;21840;44.920;8.616;2022-08-25T11:54:15;100157.75;;;32.69;31.84
35716;BME280;21840;44.920;8.616;2022-08-25T11:56:59;100165.81;;;32.79;31.42
35716;BME280;21840;44.920;8.616;2022-08-25T12:02:34;100161.06;;;32.66;31.59
35716;BME280;21840;44.920;8.616;2022-08-25T12:10:18;100148.22;;;32.72;31.14
35716;BME280;21840;44.920;8.616;2022-08-25T12:37:52;100137.63;;;32.94;30.13
35716;BME280;21840;44.920;8.616;2022-08-25T12:43:26;100124.44;;;33.30;29.85
35716;BME280;21840;44.920;8.616;2022-08-25T12:45:54;100126.03;;;33.13;29.72
35716;BME280;21840;44.920;8.616;2022-08-25T12:48:44;100120.75;;;33.21;29.69
35716;BME280;21840;44.920;8.616;2022-08-25T12:51:18;100111.38;;;33.33;29.46
35716;BME280;21840;44.920;8.616;2022-08-25T12:53:51;100110.53;;;33.13;29.86
35716;BME280;21840;44.920;8.616;2022-08-25T12:56:24;100106.47;;;33.29;29.69
35716;BME280;21840;44.920;8.616;2022-08-25T12:59:10;100097.69;;;33.38;29.54
35716;BME280;21840;44.920;8.616;2022-08-25T13:10:31;100094.44;;;33.36;29.54
35716;BME280;21840;44.920;8.616;2022-08-25T13:20:45;100075.66;;;33.34;28.98
35716;BME280;21840;44.920;8.616;2022-08-25T13:23:11;100086.13;;;33.46;28.98
35716;BME280;21840;44.920;8.616;2022-08-25T13:25:46;100075.91;;;33.38;29.61
35716;BME280;21840;44.920;8.616;2022-08-25T13:28:21;100068.16;;;33.45;29.41
35716;BME280;21840;44.920;8.616;2022-08-25T13:31:03;100068.03;;;33.36;29.64
35716;BME280;21840;44.920;8.616;2022-08-25T13:33:29;100071.03;;;33.54;28.72
35716;BME280;21840;44.920;8.616;2022-08-25T13:35:57;100069.72;;;33.51;28.27
35716;BME280;21840;44.920;8.616;2022-08-25T13:38:43;100073.72;;;33.59;28.01
35716;BME280;21840;44.920;8.616;2022-08-25T13:41:09;100070.09;;;33.63;27.83
35716;BME280;21840;44.920;8.616;2022-08-25T13:43:36;100060.00;;;33.64;27.81
35716;BME280;21840;44.920;8.616;2022-08-25T13:46:03;100060.38;;;33.57;27.42
35716;BME280;21840;44.920;8.616;2022-08-25T13:48:35;100063.03;;;33.62;27.48
35716;BME280;21840;44.920;8.616;2022-08-25T13:51:22;100058.00;;;33.69;27.79
35716;BME280;21840;44.920;8.616;2022-08-25T13:53:54;100050.06;;;33.73;26.98
35716;BME280;21840;44.920;8.616;2022-08-25T13:56:34;100048.59;;;33.81;27.37
35716;BME280;21840;44.920;8.616;2022-08-25T13:59:02;100047.47;;;33.82;27.12
35716;BME280;21840;44.920;8.616;2022-08-25T14:01:44;100045.69;;;33.91;26.88
35716;BME280;21840;44.920;8.616;2022-08-25T14:07:51;100036.91;;;33.94;26.44
35716;BME280;21840;44.920;8.616;2022-08-25T14:09:57;100038.91;;;33.88;26.55
35716;BME280;21840;44.920;8.616;2022-08-25T14:12:44;100031.88;;;33.87;26.44
35716;BME280;21840;44.920;8.616;2022-08-25T14:17:48;100034.78;;;34.24;26.28
35716;BME280;21840;44.920;8.616;2022-08-25T14:20:24;100030.88;;;34.30;25.44
35716;BME280;21840;44.920;8.616;2022-08-25T14:22:58;100031.06;;;34.33;25.14
35716;BME280;21840;44.920;8.616;2022-08-25T14:25:25;100025.13;;;34.45;25.50
35716;BME280;21840;44.920;8.616;2022-08-25T14:28:03;100016.41;;;34.57;25.06
35716;BME280;21840;44.920;8.616;2022-08-25T14:30:32;100019.28;;;34.66;24.72
35716;BME280;21840;44.920;8.616;2022-08-25T14:32:59;100022.91;;;34.61;24.81
35716;BME280;21840;44.920;8.616;2022-08-25T14:35:26;100013.81;;;34.66;24.43
35716;BME280;21840;44.920;8.616;2022-08-25T14:37:53;100015.22;;;34.77;24.24
35716;BME280;21840;44.920;8.616;2022-08-25T14:40:19;100015.41;;;34.81;24.18
35716;BME280;21840;44.920;8.616;2022-08-25T14:42:46;100009.06;;;34.71;23.67
35716;BME280;21840;44.920;8.616;2022-08-25T14:45:13;100014.00;;;34.83;23.85
35716;BME280;21840;44.920;8.616;2022-08-25T14:47:41;100012.59;;;35.22;23.59
35716;BME280;21840;44.920;8.616;2022-08-25T14:50:09;100008.81;;;35.68;23.45
35716;BME280;21840;44.920;8.616;2022-08-25T14:52:34;100008.50;;;36.23;22.53
35716;BME280;21840;44.920;8.616;2022-08-25T14:55:00;100007.13;;;37.18;21.12
35716;BME280;21840;44.920;8.616;2022-08-25T14:57:25;100004.50;;;38.98;19.16
35716;BME280;21840;44.920;8.616;2022-08-25T14:59:51;100006.66;;;41.27;17.02